sensor_id;sensor_type;location;lat;lon;timestamp;P1;durP1;ratioP1;P2;durP2;ratioP2
33505;SDS011;19843;51.040;13.782;2023-07-02T00:02:21;1.00;;;1.00;;
33505;SDS011;19843;51.040;13.782;2023-07-02T00:04:50;2.75;;;1.38;;
33505;SDS011;19843;51.040;13.782;2023-07-02T00:07:18;3.28;;;1.30;;
33505;SDS011;19843;51.040;13.782;2023-07-02T00:09:45;2.20;;;1.52;;
33505;SDS011;19843;51.040;13.782;2023-07-02T00:12:13;1.98;;;1.30;;
33505;SDS011;19843;51.040;13.782;2023-07-02T00:14:41;1.90;;;1.40;;
33505;SDS011;19843;51.040;13.782;2023-07-02T00:17:08;1.75;;;1.30;;
33505;SDS011;19843;51.040;13.782;2023-07-02T00:19:38;1.55;;;1.45;;
33505;SDS011;19843;51.040;13.782;2023-07-02T00:22:09;1.67;;;1.38;;
33505;SDS011;19843;51.040;13.782;2023-07-02T00:24:36;1.20;;;1.10;;
33505;SDS011;19843;51.040;13.782;2023-07-02T00:27:04;2.05;;;1.40;;
33505;SDS011;19843;51.040;13.782;2023-07-02T00:29:31;1.50;;;1.17;;
33505;SDS011;19843;51.040;13.782;2023-07-02T00:31:59;1.00;;;1.00;;
33505;SDS011;19843;51.040;13.782;2023-07-02T00:34:26;1.27;;;1.17;;
33505;SDS011;19843;51.040;13.782;2023-07-02T00:36:54;1.42;;;1.05;;
33505;SDS011;19843;51.040;13.782;2023-07-02T00:39:23;1.73;;;1.17;;
33505;SDS011;19843;51.040;13.782;2023-07-02T00:41:50;1.02;;;0.88;;
33505;SDS011;19843;51.040;13.782;2023-07-02T00:44:18;1.02;;;0.90;;
33505;SDS011;19843;51.040;13.782;2023-07-02T00:46:49;1.40;;;1.10;;
33505;SDS011;19843;51.040;13.782;2023-07-02T00:49:17;0.80;;;0.80;;
33505;SDS011;19843;51.040;13.782;2023-07-02T00:51:45;1.02;;;0.85;;
33505;SDS011;19843;51.040;13.782;2023-07-02T00:54:13;1.00;;;0.90;;
33505;SDS011;19843;51.040;13.782;2023-07-02T00:56:42;1.30;;;1.20;;
33505;SDS011;19843;51.040;13.782;2023-07-02T00:59:09;1.67;;;1.10;;
33505;SDS011;19843;51.040;13.782;2023-07-02T01:01:37;1.25;;;0.93;;
33505;SDS011;19843;51.040;13.782;2023-07-02T01:04:06;0.95;;;0.90;;
33505;SDS011;19843;51.040;13.782;2023-07-02T01:06:35;0.70;;;0.70;;
33505;SDS011;19843;51.040;13.782;2023-07-02T01:09:06;1.67;;;1.10;;
33505;SDS011;19843;51.040;13.782;2023-07-02T01:11:35;0.70;;;0.70;;
33505;SDS011;19843;51.040;13.782;2023-07-02T01:14:07;2.55;;;1.25;;
33505;SDS011;19843;51.040;13.782;2023-07-02T01:16:36;4.75;;;0.95;;
33505;SDS011;19843;51.040;13.782;2023-07-02T01:19:08;0.80;;;0.80;;
33505;SDS011;19843;51.040;13.782;2023-07-02T01:21:40;1.10;;;1.00;;
33505;SDS011;19843;51.040;13.782;2023-07-02T01:24:08;0.95;;;0.90;;
33505;SDS011;19843;51.040;13.782;2023-07-02T01:26:35;1.30;;;1.20;;
33505;SDS011;19843;51.040;13.782;2023-07-02T01:29:12;1.42;;;0.88;;
33505;SDS011;19843;51.040;13.782;2023-07-02T01:31:41;1.80;;;1.25;;
33505;SDS011;19843;51.040;13.782;2023-07-02T01:34:09;1.80;;;1.10;;
33505;SDS011;19843;51.040;13.782;2023-07-02T01:36:37;1.77;;;1.10;;
33505;SDS011;19843;51.040;13.782;2023-07-02T01:39:06;0.80;;;0.70;;
33505;SDS011;19843;51.040;13.782;2023-07-02T01:41:36;1.05;;;0.80;;
33505;SDS011;19843;51.040;13.782;2023-07-02T01:44:04;0.70;;;0.70;;
33505;SDS011;19843;51.040;13.782;2023-07-02T01:46:32;1.27;;;1.00;;
33505;SDS011;19843;51.040;13.782;2023-07-02T01:49:00;0.95;;;0.85;;
33505;SDS011;19843;51.040;13.782;2023-07-02T01:51:27;0.77;;;0.77;;
33505;SDS011;19843;51.040;13.782;2023-07-02T01:53:54;1.55;;;1.20;;
33505;SDS011;19843;51.040;13.782;2023-07-02T01:56:23;1.05;;;0.93;;
33505;SDS011;19843;51.040;13.782;2023-07-02T01:58:51;0.70;;;0.70;;
33505;SDS011;19843;51.040;13.782;2023-07-02T02:01:19;1.13;;;0.95;;
33505;SDS011;19843;51.040;13.782;2023-07-02T02:03:46;0.88;;;0.82;;
33505;SDS011;19843;51.040;13.782;2023-07-02T02:06:14;0.80;;;0.80;;
33505;SDS011;19843;51.040;13.782;2023-07-02T02:08:41;2.35;;;1.10;;
33505;SDS011;19843;51.040;13.782;2023-07-02T02:11:09;0.95;;;0.90;;
33505;SDS011;19843;51.040;13.782;2023-07-02T02:13:37;2.47;;;1.00;;
33505;SDS011;19843;51.040;13.782;2023-07-02T02:16:05;1.13;;;1.00;;
33505;SDS011;19843;51.040;13.782;2023-07-02T02:18:32;0.88;;;0.88;;
33505;SDS011;19843;51.040;13.782;2023-07-02T02:21:00;1.20;;;1.10;;
33505;SDS011;19843;51.040;13.782;2023-07-02T02:23:28;1.40;;;0.90;;
33505;SDS011;19843;51.040;13.782;2023-07-02T02:25:55;4.47;;;1.00;;
33505;SDS011;19843;51.040;13.782;2023-07-02T02:28:23;0.90;;;0.90;;
33505;SDS011;19843;51.040;13.782;2023-07-02T02:30:52;1.27;;;1.08;;
33505;SDS011;19843;51.040;13.782;2023-07-02T02:33:19;1.05;;;1.00;;
33505;SDS011;19843;51.040;13.782;2023-07-02T02:35:48;1.27;;;1.17;;
33505;SDS011;19843;51.040;13.782;2023-07-02T02:38:15;1.63;;;1.20;;
33505;SDS011;19843;51.040;13.782;2023-07-02T02:40:43;1.95;;;1.13;;
33505;SDS011;19843;51.040;13.782;2023-07-02T02:43:10;1.05;;;0.90;;
33505;SDS011;19843;51.040;13.782;2023-07-02T02:45:38;1.48;;;1.38;;
33505;SDS011;19843;51.040;13.782;2023-07-02T02:48:07;1.10;;;1.00;;
33505;SDS011;19843;51.040;13.782;2023-07-02T02:50:35;1.02;;;1.00;;
33505;SDS011;19843;51.040;13.782;2023-07-02T02:53:04;1.30;;;1.10;;
33505;SDS011;19843;51.040;13.782;2023-07-02T02:55:32;1.05;;;0.98;;
33505;SDS011;19843;51.040;13.782;2023-07-02T02:57:59;1.10;;;1.00;;
33505;SDS011;19843;51.040;13.782;2023-07-02T03:00:26;0.90;;;0.90;;
33505;SDS011;19843;51.040;13.782;2023-07-02T03:02:54;1.10;;;1.00;;
33505;SDS011;19843;51.040;13.782;2023-07-02T03:05:23;1.30;;;1.20;;
33505;SDS011;19843;51.040;13.782;2023-07-02T03:07:51;1.30;;;1.10;;
33505;SDS011;19843;51.040;13.782;2023-07-02T03:10:18;0.98;;;0.93;;
33505;SDS011;19843;51.040;13.782;2023-07-02T03:12:47;1.30;;;1.13;;
33505;SDS011;19843;51.040;13.782;2023-07-02T03:15:14;1.42;;;1.08;;
33505;SDS011;19843;51.040;13.782;2023-07-02T03:17:43;1.35;;;0.98;;
33505;SDS011;19843;51.040;13.782;2023-07-02T03:20:11;0.90;;;0.90;;
33505;SDS011;19843;51.040;13.782;2023-07-02T03:22:40;1.48;;;0.93;;
33505;SDS011;19843;51.040;13.782;2023-07-02T03:25:08;1.17;;;1.05;;
33505;SDS011;19843;51.040;13.782;2023-07-02T03:27:36;0.88;;;0.88;;
33505;SDS011;19843;51.040;13.782;2023-07-02T03:30:03;1.23;;;0.93;;
33505;SDS011;19843;51.040;13.782;2023-07-02T03:32:32;1.05;;;0.90;;
33505;SDS011;19843;51.040;13.782;2023-07-02T03:34:59;1.45;;;1.10;;
33505;SDS011;19843;51.040;13.782;2023-07-02T03:37:27;1.20;;;1.10;;
33505;SDS011;19843;51.040;13.782;2023-07-02T03:39:56;1.17;;;1.10;;
33505;SDS011;19843;51.040;13.782;2023-07-02T03:42:24;1.02;;;1.00;;
33505;SDS011;19843;51.040;13.782;2023-07-02T03:44:52;0.90;;;0.90;;
33505;SDS011;19843;51.040;13.782;2023-07-02T03:47:19;1.33;;;1.23;;
33505;SDS011;19843;51.040;13.782;2023-07-02T03:49:47;1.27;;;1.13;;
33505;SDS011;19843;51.040;13.782;2023-07-02T03:52:15;1.20;;;1.10;;
33505;SDS011;19843;51.040;13.782;2023-07-02T03:54:42;0.90;;;0.90;;
33505;SDS011;19843;51.040;13.782;2023-07-02T03:57:11;1.20;;;1.10;;
33505;SDS011;19843;51.040;13.782;2023-07-02T03:59:39;1.55;;;1.00;;
33505;SDS011;19843;51.040;13.782;2023-07-02T04:02:06;1.50;;;1.02;;
33505;SDS011;19843;51.040;13.782;2023-07-02T04:04:33;1.05;;;1.05;;
33505;SDS011;19843;51.040;13.782;2023-07-02T04:07:01;1.30;;;1.20;;
33505;SDS011;19843;51.040;13.782;2023-07-02T04:09:29;2.30;;;1.10;;
33505;SDS011;19843;51.040;13.782;2023-07-02T04:11:59;1.45;;;1.20;;
33505;SDS011;19843;51.040;13.782;2023-07-02T04:14:28;4.10;;;1.27;;
33505;SDS011;19843;51.040;13.782;2023-07-02T04:16:55;0.75;;;0.75;;
33505;SDS011;19843;51.040;13.782;2023-07-02T04:19:23;1.30;;;1.20;;
33505;SDS011;19843;51.040;13.782;2023-07-02T04:21:50;2.30;;;1.20;;
33505;SDS011;19843;51.040;13.782;2023-07-02T04:24:18;2.53;;;1.38;;
33505;SDS011;19843;51.040;13.782;2023-07-02T04:26:48;0.93;;;0.93;;
33505;SDS011;19843;51.040;13.782;2023-07-02T04:29:37;1.30;;;1.20;;
33505;SDS011;19843;51.040;13.782;2023-07-02T04:32:04;1.00;;;0.90;;
33505;SDS011;19843;51.040;13.782;2023-07-02T04:34:33;1.50;;;1.40;;
33505;SDS011;19843;51.040;13.782;2023-07-02T04:37:02;1.42;;;1.30;;
33505;SDS011;19843;51.040;13.782;2023-07-02T04:39:30;1.33;;;1.23;;
33505;SDS011;19843;51.040;13.782;2023-07-02T04:41:58;1.45;;;1.10;;
33505;SDS011;19843;51.040;13.782;2023-07-02T04:44:25;2.63;;;1.63;;
33505;SDS011;19843;51.040;13.782;2023-07-02T04:46:57;1.63;;;1.52;;
33505;SDS011;19843;51.040;13.782;2023-07-02T04:49:25;1.30;;;1.30;;
33505;SDS011;19843;51.040;13.782;2023-07-02T04:51:52;1.45;;;1.35;;
33505;SDS011;19843;51.040;13.782;2023-07-02T04:54:20;1.40;;;1.30;;
33505;SDS011;19843;51.040;13.782;2023-07-02T04:56:48;1.52;;;1.42;;
33505;SDS011;19843;51.040;13.782;2023-07-02T04:59:16;1.55;;;1.45;;
33505;SDS011;19843;51.040;13.782;2023-07-02T05:01:44;1.30;;;1.20;;
33505;SDS011;19843;51.040;13.782;2023-07-02T05:04:13;2.30;;;1.52;;
33505;SDS011;19843;51.040;13.782;2023-07-02T05:06:41;1.52;;;1.42;;
33505;SDS011;19843;51.040;13.782;2023-07-02T05:09:08;1.58;;;1.48;;
33505;SDS011;19843;51.040;13.782;2023-07-02T05:11:35;1.77;;;1.67;;
33505;SDS011;19843;51.040;13.782;2023-07-02T05:14:03;2.03;;;1.70;;
33505;SDS011;19843;51.040;13.782;2023-07-02T05:16:31;3.67;;;1.58;;
33505;SDS011;19843;51.040;13.782;2023-07-02T05:18:58;1.83;;;1.73;;
33505;SDS011;19843;51.040;13.782;2023-07-02T05:21:27;2.25;;;2.03;;
33505;SDS011;19843;51.040;13.782;2023-07-02T05:23:54;1.95;;;1.80;;
33505;SDS011;19843;51.040;13.782;2023-07-02T05:26:22;1.75;;;1.65;;
33505;SDS011;19843;51.040;13.782;2023-07-02T05:28:49;2.70;;;1.75;;
33505;SDS011;19843;51.040;13.782;2023-07-02T05:31:17;1.70;;;1.60;;
33505;SDS011;19843;51.040;13.782;2023-07-02T05:33:45;1.50;;;1.40;;
33505;SDS011;19843;51.040;13.782;2023-07-02T05:36:12;2.80;;;1.60;;
33505;SDS011;19843;51.040;13.782;2023-07-02T05:38:41;2.50;;;1.80;;
33505;SDS011;19843;51.040;13.782;2023-07-02T05:41:08;2.42;;;1.85;;
33505;SDS011;19843;51.040;13.782;2023-07-02T05:43:36;1.85;;;1.70;;
33505;SDS011;19843;51.040;13.782;2023-07-02T05:46:03;1.75;;;1.65;;
33505;SDS011;19843;51.040;13.782;2023-07-02T05:48:31;2.13;;;1.40;;
33505;SDS011;19843;51.040;13.782;2023-07-02T05:50:58;2.10;;;1.80;;
33505;SDS011;19843;51.040;13.782;2023-07-02T05:53:25;1.92;;;1.80;;
33505;SDS011;19843;51.040;13.782;2023-07-02T05:55:55;2.70;;;1.50;;
33505;SDS011;19843;51.040;13.782;2023-07-02T05:58:22;1.92;;;1.83;;
33505;SDS011;19843;51.040;13.782;2023-07-02T06:01:04;2.78;;;1.42;;
33505;SDS011;19843;51.040;13.782;2023-07-02T06:03:32;3.05;;;1.65;;
33505;SDS011;19843;51.040;13.782;2023-07-02T06:06:00;2.00;;;1.77;;
33505;SDS011;19843;51.040;13.782;2023-07-02T06:08:27;1.85;;;1.73;;
33505;SDS011;19843;51.040;13.782;2023-07-02T06:10:56;1.75;;;1.63;;
33505;SDS011;19843;51.040;13.782;2023-07-02T06:13:23;2.55;;;1.42;;
33505;SDS011;19843;51.040;13.782;2023-07-02T06:15:51;4.80;;;1.75;;
33505;SDS011;19843;51.040;13.782;2023-07-02T06:18:18;1.40;;;1.30;;
33505;SDS011;19843;51.040;13.782;2023-07-02T06:20:46;1.83;;;1.67;;
33505;SDS011;19843;51.040;13.782;2023-07-02T06:23:14;1.85;;;1.73;;
33505;SDS011;19843;51.040;13.782;2023-07-02T06:25:42;1.75;;;1.65;;
33505;SDS011;19843;51.040;13.782;2023-07-02T06:28:11;2.53;;;1.65;;
33505;SDS011;19843;51.040;13.782;2023-07-02T06:30:38;1.60;;;1.42;;
33505;SDS011;19843;51.040;13.782;2023-07-02T06:33:06;2.08;;;1.55;;
33505;SDS011;19843;51.040;13.782;2023-07-02T06:35:33;1.90;;;1.73;;
33505;SDS011;19843;51.040;13.782;2023-07-02T06:38:01;2.83;;;1.73;;
33505;SDS011;19843;51.040;13.782;2023-07-02T06:40:28;2.25;;;2.05;;
33505;SDS011;19843;51.040;13.782;2023-07-02T06:42:56;1.75;;;1.55;;
33505;SDS011;19843;51.040;13.782;2023-07-02T06:45:24;2.00;;;1.90;;
33505;SDS011;19843;51.040;13.782;2023-07-02T06:47:52;3.92;;;1.85;;
33505;SDS011;19843;51.040;13.782;2023-07-02T06:50:20;2.10;;;1.73;;
33505;SDS011;19843;51.040;13.782;2023-07-02T06:52:48;2.17;;;1.98;;
33505;SDS011;19843;51.040;13.782;2023-07-02T06:55:15;1.90;;;1.80;;
33505;SDS011;19843;51.040;13.782;2023-07-02T06:57:43;2.72;;;1.90;;
33505;SDS011;19843;51.040;13.782;2023-07-02T07:00:12;1.75;;;1.58;;
33505;SDS011;19843;51.040;13.782;2023-07-02T07:02:41;2.22;;;2.03;;
33505;SDS011;19843;51.040;13.782;2023-07-02T07:05:11;2.45;;;1.75;;
33505;SDS011;19843;51.040;13.782;2023-07-02T07:07:39;1.60;;;1.50;;
33505;SDS011;19843;51.040;13.782;2023-07-02T07:10:07;2.35;;;1.60;;
33505;SDS011;19843;51.040;13.782;2023-07-02T07:12:35;2.47;;;1.83;;
33505;SDS011;19843;51.040;13.782;2023-07-02T07:15:03;1.70;;;1.60;;
33505;SDS011;19843;51.040;13.782;2023-07-02T07:17:31;1.98;;;1.77;;
33505;SDS011;19843;51.040;13.782;2023-07-02T07:20:02;5.20;;;1.70;;
33505;SDS011;19843;51.040;13.782;2023-07-02T07:22:31;1.98;;;1.77;;
33505;SDS011;19843;51.040;13.782;2023-07-02T07:25:01;2.22;;;2.03;;
33505;SDS011;19843;51.040;13.782;2023-07-02T07:27:29;1.70;;;1.60;;
33505;SDS011;19843;51.040;13.782;2023-07-02T07:29:57;1.58;;;1.48;;
33505;SDS011;19843;51.040;13.782;2023-07-02T07:32:24;2.50;;;2.00;;
33505;SDS011;19843;51.040;13.782;2023-07-02T07:34:52;2.63;;;2.28;;
33505;SDS011;19843;51.040;13.782;2023-07-02T07:37:21;2.30;;;2.20;;
33505;SDS011;19843;51.040;13.782;2023-07-02T07:39:48;2.10;;;2.00;;
33505;SDS011;19843;51.040;13.782;2023-07-02T07:42:16;2.67;;;2.47;;
33505;SDS011;19843;51.040;13.782;2023-07-02T07:44:44;2.90;;;2.65;;
33505;SDS011;19843;51.040;13.782;2023-07-02T07:47:11;3.08;;;2.38;;
33505;SDS011;19843;51.040;13.782;2023-07-02T07:49:42;2.55;;;2.35;;
33505;SDS011;19843;51.040;13.782;2023-07-02T07:52:09;2.85;;;2.45;;
33505;SDS011;19843;51.040;13.782;2023-07-02T07:54:38;2.50;;;2.30;;
33505;SDS011;19843;51.040;13.782;2023-07-02T07:57:06;2.38;;;2.17;;
33505;SDS011;19843;51.040;13.782;2023-07-02T07:59:34;3.65;;;2.22;;
33505;SDS011;19843;51.040;13.782;2023-07-02T08:02:01;2.10;;;2.00;;
33505;SDS011;19843;51.040;13.782;2023-07-02T08:04:29;1.92;;;1.83;;
33505;SDS011;19843;51.040;13.782;2023-07-02T08:06:57;2.20;;;2.00;;
33505;SDS011;19843;51.040;13.782;2023-07-02T08:09:24;2.30;;;2.10;;
33505;SDS011;19843;51.040;13.782;2023-07-02T08:11:53;2.22;;;2.10;;
33505;SDS011;19843;51.040;13.782;2023-07-02T08:14:22;2.00;;;1.90;;
33505;SDS011;19843;51.040;13.782;2023-07-02T08:16:50;1.85;;;1.75;;
33505;SDS011;19843;51.040;13.782;2023-07-02T08:19:18;2.05;;;1.85;;
33505;SDS011;19843;51.040;13.782;2023-07-02T08:21:46;1.70;;;1.60;;
33505;SDS011;19843;51.040;13.782;2023-07-02T08:24:14;1.70;;;1.60;;
33505;SDS011;19843;51.040;13.782;2023-07-02T08:26:41;2.28;;;1.90;;
33505;SDS011;19843;51.040;13.782;2023-07-02T08:29:12;3.50;;;1.77;;
33505;SDS011;19843;51.040;13.782;2023-07-02T08:31:39;3.25;;;2.10;;
33505;SDS011;19843;51.040;13.782;2023-07-02T08:34:07;2.17;;;2.08;;
33505;SDS011;19843;51.040;13.782;2023-07-02T08:36:35;2.22;;;2.03;;
33505;SDS011;19843;51.040;13.782;2023-07-02T08:39:02;2.17;;;2.03;;
33505;SDS011;19843;51.040;13.782;2023-07-02T08:41:30;2.45;;;2.15;;
33505;SDS011;19843;51.040;13.782;2023-07-02T08:44:08;1.85;;;1.73;;
33505;SDS011;19843;51.040;13.782;2023-07-02T08:46:38;2.42;;;1.85;;
33505;SDS011;19843;51.040;13.782;2023-07-02T08:49:06;1.70;;;1.60;;
33505;SDS011;19843;51.040;13.782;2023-07-02T08:51:34;1.90;;;1.80;;
33505;SDS011;19843;51.040;13.782;2023-07-02T08:54:01;2.13;;;1.92;;
33505;SDS011;19843;51.040;13.782;2023-07-02T08:56:29;1.70;;;1.60;;
33505;SDS011;19843;51.040;13.782;2023-07-02T08:58:57;2.08;;;1.88;;
33505;SDS011;19843;51.040;13.782;2023-07-02T09:01:24;2.25;;;1.70;;
33505;SDS011;19843;51.040;13.782;2023-07-02T09:03:58;1.73;;;1.63;;
33505;SDS011;19843;51.040;13.782;2023-07-02T09:06:26;5.68;;;1.75;;
33505;SDS011;19843;51.040;13.782;2023-07-02T09:09:02;1.70;;;1.60;;
33505;SDS011;19843;51.040;13.782;2023-07-02T09:11:30;1.50;;;1.40;;
33505;SDS011;19843;51.040;13.782;2023-07-02T09:13:58;1.75;;;1.52;;
33505;SDS011;19843;51.040;13.782;2023-07-02T09:16:27;4.45;;;1.90;;
33505;SDS011;19843;51.040;13.782;2023-07-02T09:18:59;1.60;;;1.50;;
33505;SDS011;19843;51.040;13.782;2023-07-02T09:21:28;1.50;;;1.40;;
33505;SDS011;19843;51.040;13.782;2023-07-02T09:24:11;1.77;;;1.60;;
33505;SDS011;19843;51.040;13.782;2023-07-02T09:26:41;2.38;;;1.63;;
33505;SDS011;19843;51.040;13.782;2023-07-02T09:29:09;1.50;;;1.40;;
33505;SDS011;19843;51.040;13.782;2023-07-02T09:31:43;1.65;;;1.48;;
33505;SDS011;19843;51.040;13.782;2023-07-02T09:34:34;1.35;;;1.25;;
33505;SDS011;19843;51.040;13.782;2023-07-02T09:37:03;1.60;;;1.40;;
33505;SDS011;19843;51.040;13.782;2023-07-02T09:39:32;1.50;;;1.40;;
33505;SDS011;19843;51.040;13.782;2023-07-02T09:42:01;1.50;;;1.40;;
33505;SDS011;19843;51.040;13.782;2023-07-02T09:44:30;2.67;;;1.65;;
33505;SDS011;19843;51.040;13.782;2023-07-02T09:47:00;1.63;;;1.52;;
33505;SDS011;19843;51.040;13.782;2023-07-02T09:49:31;2.15;;;1.40;;
33505;SDS011;19843;51.040;13.782;2023-07-02T09:52:02;1.40;;;1.30;;
33505;SDS011;19843;51.040;13.782;2023-07-02T09:54:30;1.58;;;1.42;;
33505;SDS011;19843;51.040;13.782;2023-07-02T09:56:59;1.77;;;1.42;;
33505;SDS011;19843;51.040;13.782;2023-07-02T09:59:27;1.88;;;1.50;;
33505;SDS011;19843;51.040;13.782;2023-07-02T10:01:56;2.17;;;1.77;;
33505;SDS011;19843;51.040;13.782;2023-07-02T10:04:24;1.35;;;1.25;;
33505;SDS011;19843;51.040;13.782;2023-07-02T10:06:52;1.50;;;1.40;;
33505;SDS011;19843;51.040;13.782;2023-07-02T10:09:34;1.60;;;1.25;;
33505;SDS011;19843;51.040;13.782;2023-07-02T10:12:14;1.50;;;1.40;;
33505;SDS011;19843;51.040;13.782;2023-07-02T10:14:43;2.08;;;1.50;;
33505;SDS011;19843;51.040;13.782;2023-07-02T10:17:11;1.60;;;1.50;;
33505;SDS011;19843;51.040;13.782;2023-07-02T10:19:50;1.45;;;1.35;;
33505;SDS011;19843;51.040;13.782;2023-07-02T10:22:18;1.80;;;1.35;;
33505;SDS011;19843;51.040;13.782;2023-07-02T10:24:54;1.42;;;1.33;;
33505;SDS011;19843;51.040;13.782;2023-07-02T10:27:33;2.63;;;1.67;;
33505;SDS011;19843;51.040;13.782;2023-07-02T10:30:02;1.42;;;1.33;;
33505;SDS011;19843;51.040;13.782;2023-07-02T10:32:31;1.50;;;1.40;;
33505;SDS011;19843;51.040;13.782;2023-07-02T10:35:00;1.70;;;1.60;;
33505;SDS011;19843;51.040;13.782;2023-07-02T10:37:34;1.67;;;1.58;;
33505;SDS011;19843;51.040;13.782;2023-07-02T10:40:07;1.90;;;1.30;;
33505;SDS011;19843;51.040;13.782;2023-07-02T10:42:46;1.70;;;1.60;;
33505;SDS011;19843;51.040;13.782;2023-07-02T10:45:14;1.75;;;1.65;;
33505;SDS011;19843;51.040;13.782;2023-07-02T10:47:41;2.22;;;1.58;;
33505;SDS011;19843;51.040;13.782;2023-07-02T10:50:16;1.67;;;1.58;;
33505;SDS011;19843;51.040;13.782;2023-07-02T10:52:44;1.52;;;1.40;;
33505;SDS011;19843;51.040;13.782;2023-07-02T10:55:17;1.52;;;1.42;;
33505;SDS011;19843;51.040;13.782;2023-07-02T10:57:45;2.97;;;1.35;;
33505;SDS011;19843;51.040;13.782;2023-07-02T11:00:13;1.50;;;1.40;;
33505;SDS011;19843;51.040;13.782;2023-07-02T11:02:43;3.53;;;1.38;;
33505;SDS011;19843;51.040;13.782;2023-07-02T11:05:11;1.50;;;1.40;;
33505;SDS011;19843;51.040;13.782;2023-07-02T11:07:42;1.73;;;1.38;;
33505;SDS011;19843;51.040;13.782;2023-07-02T11:10:10;2.63;;;1.50;;
33505;SDS011;19843;51.040;13.782;2023-07-02T11:12:46;1.50;;;1.40;;
33505;SDS011;19843;51.040;13.782;2023-07-02T11:15:14;1.73;;;1.58;;
33505;SDS011;19843;51.040;13.782;2023-07-02T11:17:44;1.40;;;1.30;;
33505;SDS011;19843;51.040;13.782;2023-07-02T11:20:13;1.75;;;1.65;;
33505;SDS011;19843;51.040;13.782;2023-07-02T11:22:41;1.85;;;1.40;;
33505;SDS011;19843;51.040;13.782;2023-07-02T11:25:12;1.85;;;1.70;;
33505;SDS011;19843;51.040;13.782;2023-07-02T11:27:42;1.88;;;1.60;;
33505;SDS011;19843;51.040;13.782;2023-07-02T11:30:11;1.98;;;1.33;;
33505;SDS011;19843;51.040;13.782;2023-07-02T11:32:49;1.50;;;1.40;;
33505;SDS011;19843;51.040;13.782;2023-07-02T11:35:18;1.67;;;1.50;;
33505;SDS011;19843;51.040;13.782;2023-07-02T11:37:46;1.77;;;1.67;;
33505;SDS011;19843;51.040;13.782;2023-07-02T11:40:17;1.38;;;1.27;;
33505;SDS011;19843;51.040;13.782;2023-07-02T11:42:46;5.38;;;1.35;;
33505;SDS011;19843;51.040;13.782;2023-07-02T11:45:13;1.83;;;1.50;;
33505;SDS011;19843;51.040;13.782;2023-07-02T11:47:41;1.75;;;1.65;;
33505;SDS011;19843;51.040;13.782;2023-07-02T11:50:10;1.63;;;1.42;;
33505;SDS011;19843;51.040;13.782;2023-07-02T11:52:51;1.92;;;1.63;;
33505;SDS011;19843;51.040;13.782;2023-07-02T11:55:19;1.70;;;1.60;;
33505;SDS011;19843;51.040;13.782;2023-07-02T11:57:47;1.55;;;1.45;;
33505;SDS011;19843;51.040;13.782;2023-07-02T12:00:16;1.40;;;1.30;;
33505;SDS011;19843;51.040;13.782;2023-07-02T12:02:43;1.40;;;1.30;;
33505;SDS011;19843;51.040;13.782;2023-07-02T12:05:11;1.55;;;1.45;;
33505;SDS011;19843;51.040;13.782;2023-07-02T12:07:39;2.00;;;1.60;;
33505;SDS011;19843;51.040;13.782;2023-07-02T12:10:07;1.70;;;1.60;;
33505;SDS011;19843;51.040;13.782;2023-07-02T12:12:35;1.42;;;1.33;;
33505;SDS011;19843;51.040;13.782;2023-07-02T12:15:04;1.40;;;1.30;;
33505;SDS011;19843;51.040;13.782;2023-07-02T12:17:33;1.50;;;1.40;;
33505;SDS011;19843;51.040;13.782;2023-07-02T12:20:01;1.98;;;1.77;;
33505;SDS011;19843;51.040;13.782;2023-07-02T12:22:29;1.70;;;1.60;;
33505;SDS011;19843;51.040;13.782;2023-07-02T12:24:56;1.50;;;1.40;;
33505;SDS011;19843;51.040;13.782;2023-07-02T12:27:24;1.75;;;1.65;;
33505;SDS011;19843;51.040;13.782;2023-07-02T12:29:53;1.42;;;1.33;;
33505;SDS011;19843;51.040;13.782;2023-07-02T12:32:24;2.70;;;1.85;;
33505;SDS011;19843;51.040;13.782;2023-07-02T12:34:51;2.13;;;1.92;;
33505;SDS011;19843;51.040;13.782;2023-07-02T12:37:19;1.75;;;1.65;;
33505;SDS011;19843;51.040;13.782;2023-07-02T12:39:47;2.35;;;2.15;;
33505;SDS011;19843;51.040;13.782;2023-07-02T12:42:14;1.90;;;1.70;;
33505;SDS011;19843;51.040;13.782;2023-07-02T12:44:42;1.90;;;1.80;;
33505;SDS011;19843;51.040;13.782;2023-07-02T12:47:09;2.03;;;1.75;;
33505;SDS011;19843;51.040;13.782;2023-07-02T12:49:38;2.63;;;2.00;;
33505;SDS011;19843;51.040;13.782;2023-07-02T12:52:06;3.40;;;2.15;;
33505;SDS011;19843;51.040;13.782;2023-07-02T12:54:33;1.80;;;1.70;;
33505;SDS011;19843;51.040;13.782;2023-07-02T12:57:01;2.08;;;1.88;;
33505;SDS011;19843;51.040;13.782;2023-07-02T12:59:28;1.83;;;1.60;;
33505;SDS011;19843;51.040;13.782;2023-07-02T13:01:58;3.10;;;2.10;;
33505;SDS011;19843;51.040;13.782;2023-07-02T13:04:25;1.83;;;1.55;;
33505;SDS011;19843;51.040;13.782;2023-07-02T13:06:54;2.65;;;2.13;;
33505;SDS011;19843;51.040;13.782;2023-07-02T13:09:22;2.05;;;1.80;;
33505;SDS011;19843;51.040;13.782;2023-07-02T13:11:49;2.13;;;1.70;;
33505;SDS011;19843;51.040;13.782;2023-07-02T13:14:17;2.20;;;1.38;;
33505;SDS011;19843;51.040;13.782;2023-07-02T13:16:47;3.88;;;1.77;;
33505;SDS011;19843;51.040;13.782;2023-07-02T13:19:14;2.15;;;1.67;;
33505;SDS011;19843;51.040;13.782;2023-07-02T13:21:42;2.78;;;1.70;;
33505;SDS011;19843;51.040;13.782;2023-07-02T13:24:11;1.85;;;1.50;;
33505;SDS011;19843;51.040;13.782;2023-07-02T13:26:39;5.28;;;2.28;;
33505;SDS011;19843;51.040;13.782;2023-07-02T13:29:10;2.20;;;2.00;;
33505;SDS011;19843;51.040;13.782;2023-07-02T13:31:37;3.70;;;2.30;;
33505;SDS011;19843;51.040;13.782;2023-07-02T13:34:05;4.50;;;1.90;;
33505;SDS011;19843;51.040;13.782;2023-07-02T13:36:32;3.97;;;2.15;;
33505;SDS011;19843;51.040;13.782;2023-07-02T13:39:00;6.80;;;2.22;;
33505;SDS011;19843;51.040;13.782;2023-07-02T13:41:30;2.95;;;2.40;;
33505;SDS011;19843;51.040;13.782;2023-07-02T13:43:59;3.95;;;2.20;;
33505;SDS011;19843;51.040;13.782;2023-07-02T13:46:27;4.95;;;2.70;;
33505;SDS011;19843;51.040;13.782;2023-07-02T13:48:54;3.70;;;2.22;;
33505;SDS011;19843;51.040;13.782;2023-07-02T13:51:22;4.40;;;2.65;;
33505;SDS011;19843;51.040;13.782;2023-07-02T13:53:49;5.88;;;2.63;;
33505;SDS011;19843;51.040;13.782;2023-07-02T13:56:17;2.88;;;2.13;;
33505;SDS011;19843;51.040;13.782;2023-07-02T13:58:58;2.78;;;2.35;;
33505;SDS011;19843;51.040;13.782;2023-07-02T14:01:27;2.88;;;2.22;;
33505;SDS011;19843;51.040;13.782;2023-07-02T14:03:55;6.00;;;2.03;;
33505;SDS011;19843;51.040;13.782;2023-07-02T14:06:22;2.30;;;2.10;;
33505;SDS011;19843;51.040;13.782;2023-07-02T14:08:51;3.58;;;1.92;;
33505;SDS011;19843;51.040;13.782;2023-07-02T14:11:21;3.45;;;2.22;;
33505;SDS011;19843;51.040;13.782;2023-07-02T14:13:51;3.13;;;2.08;;
33505;SDS011;19843;51.040;13.782;2023-07-02T14:16:19;2.70;;;1.95;;
33505;SDS011;19843;51.040;13.782;2023-07-02T14:18:48;2.58;;;2.20;;
33505;SDS011;19843;51.040;13.782;2023-07-02T14:21:15;3.35;;;2.15;;
33505;SDS011;19843;51.040;13.782;2023-07-02T14:23:43;1.90;;;1.75;;
33505;SDS011;19843;51.040;13.782;2023-07-02T14:26:11;3.03;;;2.40;;
33505;SDS011;19843;51.040;13.782;2023-07-02T14:28:38;3.15;;;2.00;;
33505;SDS011;19843;51.040;13.782;2023-07-02T14:31:07;2.40;;;1.88;;
33505;SDS011;19843;51.040;13.782;2023-07-02T14:33:36;5.47;;;2.15;;
33505;SDS011;19843;51.040;13.782;2023-07-02T14:36:04;6.78;;;2.53;;
33505;SDS011;19843;51.040;13.782;2023-07-02T14:38:33;3.72;;;2.33;;
33505;SDS011;19843;51.040;13.782;2023-07-02T14:41:02;4.43;;;2.05;;
33505;SDS011;19843;51.040;13.782;2023-07-02T14:43:29;3.88;;;2.28;;